Time;durP1;ratioP1;P1;durP2;ratioP2;P2;SDS_P1;SDS_P2;PMS_P1;PMS_P2;Temp;Humidity;BMP_temperature;BMP_pressure;BME280_temperature;BME280_humidity;BME280_pressure;Samples;Min_cycle;Max_cycle;Signal;HPM_P1;HPM_P2
2023/06/25 00:00:23;;;;;;;8.95;5.18;;;17.80;99.90;;;;;;4971970;28;20177;-91
2023/06/25 00:02:48;;;;;;;9.40;4.80;;;17.70;99.90;;;;;;5434463;23;20230;-94
2023/06/25 00:05:14;;;;;;;7.32;4.70;;;17.70;99.90;;;;;;5013560;28;20191;-91
2023/06/25 00:07:43;;;;;;;7.88;4.82;;;17.60;99.90;;;;;;5014451;28;20171;-92
2023/06/25 00:10:09;;;;;;;9.15;5.25;;;17.70;99.90;;;;;;5015321;28;20207;-92
2023/06/25 00:12:34;;;;;;;8.77;5.38;;;17.70;99.90;;;;;;5014152;28;20191;-92
2023/06/25 00:15:00;;;;;;;5.85;4.95;;;17.70;99.90;;;;;;5015153;28;20602;-92
2023/06/25 00:17:27;;;;;;;6.97;4.90;;;17.60;99.90;;;;;;5014073;28;20171;-92
2023/06/25 00:19:58;;;;;;;9.00;4.80;;;17.60;99.90;;;;;;5013748;28;20179;-93
2023/06/25 00:22:24;;;;;;;7.68;5.03;;;17.60;99.90;;;;;;5014143;28;20171;-92
2023/06/25 00:24:58;;;;;;;13.48;5.07;;;17.60;99.90;;;;;;5014759;28;20606;-92
2023/06/25 00:27:23;;;;;;;6.35;5.30;;;17.50;99.90;;;;;;4994417;28;20176;-92
2023/06/25 00:29:49;;;;;;;9.45;4.95;;;17.50;99.90;;;;;;5007958;28;20215;-92
2023/06/25 00:32:17;;;;;;;7.43;4.63;;;17.50;99.90;;;;;;5014698;28;20183;-92
2023/06/25 00:34:43;;;;;;;7.75;4.82;;;17.50;99.90;;;;;;5012713;28;20192;-92
2023/06/25 00:37:16;;;;;;;7.90;4.70;;;17.60;99.90;;;;;;5013784;28;20290;-92
2023/06/25 00:39:47;;;;;;;7.65;4.63;;;17.60;99.90;;;;;;5013713;28;20197;-93
2023/06/25 00:42:14;;;;;;;5.90;4.82;;;17.60;99.90;;;;;;5013721;28;20187;-94
2023/06/25 00:44:42;;;;;;;7.13;5.38;;;17.70;99.90;;;;;;5002876;28;20193;-94
2023/06/25 00:47:15;;;;;;;6.45;5.53;;;17.60;99.90;;;;;;5012819;28;20233;-94
2023/06/25 00:49:46;;;;;;;6.03;5.40;;;17.60;99.90;;;;;;5013567;28;20265;-92
2023/06/25 00:52:13;;;;;;;9.35;5.38;;;17.60;99.90;;;;;;5005241;28;20230;-92
2023/06/25 00:54:43;;;;;;;6.82;5.10;;;17.60;99.90;;;;;;5014219;28;20183;-92
2023/06/25 00:57:10;;;;;;;6.78;5.25;;;17.60;99.90;;;;;;5018134;28;20183;-92
2023/06/25 00:59:40;;;;;;;11.65;5.60;;;17.60;99.90;;;;;;5018167;28;20214;-92
2023/06/25 01:02:46;;;;;;;10.20;5.32;;;17.60;99.90;;;;;;5002061;28;20180;-93
2023/06/25 01:05:43;;;;;;;9.60;4.72;;;17.60;99.90;;;;;;5007509;28;20235;-93
2023/06/25 01:08:10;;;;;;;7.80;4.60;;;17.60;99.90;;;;;;5007318;28;20250;-92
2023/06/25 01:10:40;;;;;;;10.73;4.88;;;17.60;99.90;;;;;;5016817;28;20572;-92
2023/06/25 01:13:06;;;;;;;11.73;5.15;;;17.60;99.90;;;;;;5016804;28;20198;-91
2023/06/25 01:15:36;;;;;;;7.90;5.28;;;17.60;99.90;;;;;;5013284;28;20573;-91
2023/06/25 01:18:02;;;;;;;7.30;5.47;;;17.60;99.90;;;;;;5016090;28;20179;-91
2023/06/25 01:20:28;;;;;;;10.75;5.18;;;17.60;99.90;;;;;;5016626;28;20191;-92
2023/06/25 01:22:55;;;;;;;10.57;5.40;;;17.50;99.90;;;;;;5016788;28;20186;-91
2023/06/25 01:25:24;;;;;;;10.10;4.75;;;17.50;99.90;;;;;;5016330;28;20175;-92
2023/06/25 01:27:50;;;;;;;8.35;5.78;;;17.50;99.90;;;;;;5017766;28;20241;-91
2023/06/25 01:30:17;;;;;;;8.88;5.32;;;17.60;99.90;;;;;;5016422;28;20646;-92
2023/06/25 01:32:44;;;;;;;7.85;5.18;;;17.60;99.90;;;;;;5016398;28;20237;-94
2023/06/25 01:35:16;;;;;;;8.82;5.60;;;17.60;99.90;;;;;;5015077;28;20261;-92
2023/06/25 01:37:41;;;;;;;8.57;6.03;;;17.60;99.90;;;;;;5016553;28;20190;-92
2023/06/25 01:40:08;;;;;;;9.68;5.90;;;17.70;99.90;;;;;;5015952;28;20183;-92
2023/06/25 01:42:34;;;;;;;10.10;5.65;;;17.70;99.90;;;;;;5016487;28;20206;-93
2023/06/25 01:45:00;;;;;;;9.52;5.78;;;17.70;99.90;;;;;;5016310;28;20184;-92
2023/06/25 01:47:26;;;;;;;10.57;6.18;;;17.70;99.90;;;;;;5017695;28;20163;-93
2023/06/25 01:49:52;;;;;;;8.32;5.72;;;17.70;99.90;;;;;;5017289;28;20265;-93
2023/06/25 01:52:17;;;;;;;10.40;5.57;;;17.70;99.90;;;;;;5017613;28;20175;-94
2023/06/25 01:54:50;;;;;;;9.15;5.43;;;17.70;99.90;;;;;;5016283;28;20214;-93
2023/06/25 01:57:16;;;;;;;13.75;5.80;;;17.70;99.90;;;;;;5016537;28;20177;-93
2023/06/25 01:59:41;;;;;;;10.82;5.63;;;17.70;99.90;;;;;;5016394;28;20278;-92
2023/06/25 02:02:07;;;;;;;12.15;6.20;;;17.60;99.90;;;;;;5016090;28;20186;-92
2023/06/25 02:05:02;;;;;;;12.63;5.82;;;17.60;99.90;;;;;;5015925;28;20242;-92
2023/06/25 02:07:28;;;;;;;14.70;6.03;;;17.60;99.90;;;;;;5015210;28;20172;-93
2023/06/25 02:09:54;;;;;;;9.93;5.75;;;17.50;99.90;;;;;;5015271;28;20269;-93
2023/06/25 02:12:19;;;;;;;8.73;5.93;;;17.40;99.90;;;;;;5015395;28;20179;-93
2023/06/25 02:14:53;;;;;;;10.90;6.50;;;17.40;99.90;;;;;;5016972;28;20234;-93
2023/06/25 02:17:19;;;;;;;9.55;6.00;;;17.40;99.90;;;;;;5016405;28;20225;-93
2023/06/25 02:19:44;;;;;;;9.30;5.55;;;17.30;99.90;;;;;;5015666;28;20183;-93
2023/06/25 02:22:10;;;;;;;10.20;6.43;;;17.30;99.90;;;;;;5011052;28;20531;-94
2023/06/25 02:24:36;;;;;;;13.82;6.28;;;17.30;99.90;;;;;;5002640;28;20188;-93
2023/06/25 02:27:01;;;;;;;13.25;6.20;;;17.30;99.90;;;;;;4996389;28;20180;-94
2023/06/25 02:29:27;;;;;;;8.90;6.03;;;17.30;99.90;;;;;;5016857;28;20958;-93
2023/06/25 02:31:53;;;;;;;10.80;6.03;;;17.30;99.90;;;;;;5015276;28;20194;-93
2023/06/25 02:34:19;;;;;;;10.02;5.82;;;17.30;99.90;;;;;;5015074;28;20590;-91
2023/06/25 02:36:47;;;;;;;15.32;6.80;;;17.40;99.90;;;;;;5015317;28;20531;-92
2023/06/25 02:39:13;;;;;;;9.40;5.30;;;17.30;99.90;;;;;;5015194;28;20644;-93
2023/06/25 02:41:38;;;;;;;12.35;6.43;;;17.30;99.90;;;;;;5014466;28;20232;-93
2023/06/25 02:44:04;;;;;;;8.45;5.50;;;17.30;99.90;;;;;;5015433;28;20277;-93
2023/06/25 02:47:05;;;;;;;12.15;6.40;;;17.30;99.90;;;;;;5015991;28;20179;-95
2023/06/25 02:49:31;;;;;;;10.27;6.00;;;17.30;99.90;;;;;;5011280;28;20210;-93
2023/06/25 02:51:56;;;;;;;12.27;6.30;;;17.30;99.90;;;;;;5015073;28;20241;-93
2023/06/25 02:54:22;;;;;;;8.30;6.10;;;17.30;99.90;;;;;;5013506;28;20183;-93
2023/06/25 02:56:57;;;;;;;11.07;5.90;;;17.30;99.90;;;;;;5003971;28;20540;-93
2023/06/25 02:59:23;;;;;;;15.93;5.72;;;17.30;99.90;;;;;;5011120;28;20191;-93
2023/06/25 03:01:49;;;;;;;11.68;6.30;;;17.30;99.90;;;;;;5008582;28;20191;-94
2023/06/25 03:04:14;;;;;;;14.35;6.18;;;17.20;99.90;;;;;;5004847;28;20243;-94
2023/06/25 03:06:42;;;;;;;11.18;6.07;;;17.20;99.90;;;;;;5002458;28;20188;-93
2023/06/25 03:09:08;;;;;;;14.35;6.35;;;17.20;99.90;;;;;;5014967;28;20548;-92
2023/06/25 03:11:34;;;;;;;9.85;6.07;;;17.20;99.90;;;;;;5014705;28;20554;-93
2023/06/25 03:14:00;;;;;;;14.40;5.90;;;17.20;99.90;;;;;;5014023;28;20261;-93
2023/06/25 03:16:29;;;;;;;9.95;6.18;;;17.20;99.90;;;;;;5014854;28;20201;-93
2023/06/25 03:18:54;;;;;;;8.20;5.90;;;17.20;99.90;;;;;;5015189;28;20233;-92
2023/06/25 03:21:20;;;;;;;17.65;5.82;;;17.20;99.90;;;;;;5014335;28;20183;-93
2023/06/25 03:23:45;;;;;;;9.38;5.88;;;17.30;99.90;;;;;;5014252;28;20282;-93
2023/06/25 03:26:17;;;;;;;7.63;5.38;;;17.20;99.90;;;;;;5014543;28;20194;-93
2023/06/25 03:28:43;;;;;;;8.93;5.95;;;17.30;99.90;;;;;;5014563;28;20219;-94
2023/06/25 03:31:09;;;;;;;11.93;6.65;;;17.30;99.90;;;;;;5014349;28;20246;-92
2023/06/25 03:33:34;;;;;;;13.65;7.15;;;17.30;99.90;;;;;;5013423;28;20183;-93
2023/06/25 03:36:00;;;;;;;12.43;5.93;;;17.40;99.90;;;;;;5014391;28;20183;-95
2023/06/25 03:38:26;;;;;;;9.20;6.07;;;17.40;99.90;;;;;;5014313;28;20183;-94
2023/06/25 03:40:52;;;;;;;10.40;6.00;;;17.50;99.90;;;;;;5014322;28;20237;-95
2023/06/25 03:43:17;;;;;;;9.73;6.03;;;17.50;99.90;;;;;;5014535;28;20225;-95
2023/06/25 03:46:00;;;;;;;9.88;6.50;;;17.50;99.90;;;;;;5014153;28;20178;-93
2023/06/25 03:48:26;;;;;;;11.90;6.38;;;17.50;99.90;;;;;;5014709;28;20527;-94
2023/06/25 03:50:52;;;;;;;10.98;6.28;;;17.50;99.90;;;;;;5013917;28;20290;-94
2023/06/25 03:53:17;;;;;;;13.82;6.50;;;17.50;99.90;;;;;;5014500;28;20182;-92
2023/06/25 03:55:47;;;;;;;7.88;5.97;;;17.60;99.90;;;;;;5014578;28;20186;-92
2023/06/25 03:58:13;;;;;;;12.38;6.25;;;17.50;99.90;;;;;;5014370;28;20167;-92
2023/06/25 04:00:39;;;;;;;11.00;6.38;;;17.60;99.90;;;;;;5014106;28;20238;-92
2023/06/25 04:03:05;;;;;;;6.95;5.95;;;17.70;99.90;;;;;;5014999;28;20231;-92
2023/06/25 04:05:31;;;;;;;9.38;5.93;;;17.70;99.90;;;;;;5015267;28;20228;-92
2023/06/25 04:07:56;;;;;;;9.40;5.95;;;17.80;99.90;;;;;;5014364;28;20206;-92
2023/06/25 04:10:22;;;;;;;8.20;5.97;;;17.80;99.90;;;;;;5014200;28;20218;-92
2023/06/25 04:12:48;;;;;;;9.32;6.40;;;17.90;99.90;;;;;;5014058;28;20187;-93
2023/06/25 04:15:13;;;;;;;12.55;6.32;;;17.90;99.90;;;;;;5015217;28;20224;-92
2023/06/25 04:17:40;;;;;;;10.18;6.28;;;18.00;99.90;;;;;;5013963;28;20226;-92
2023/06/25 04:20:07;;;;;;;12.23;5.88;;;18.10;99.90;;;;;;5006102;28;20228;-93
2023/06/25 04:22:33;;;;;;;10.98;6.15;;;18.20;99.90;;;;;;5012613;28;20688;-92
2023/06/25 04:24:59;;;;;;;10.98;6.20;;;18.30;99.90;;;;;;5011310;28;20218;-93
2023/06/25 04:27:24;;;;;;;9.05;6.93;;;18.30;99.90;;;;;;5014133;28;20229;-92
2023/06/25 04:29:50;;;;;;;11.43;6.88;;;18.40;99.90;;;;;;5014649;28;20302;-94
2023/06/25 04:32:16;;;;;;;9.57;6.47;;;18.40;99.90;;;;;;5017730;28;20527;-92
2023/06/25 04:34:42;;;;;;;9.73;6.70;;;18.50;99.90;;;;;;5017195;28;20207;-91
2023/06/25 04:37:13;;;;;;;9.80;6.15;;;18.50;99.90;;;;;;5017817;28;20261;-92
2023/06/25 04:39:40;;;;;;;9.15;6.80;;;18.60;99.90;;;;;;5017807;28;20190;-92
2023/06/25 04:42:06;;;;;;;9.40;6.85;;;18.60;99.90;;;;;;5017243;28;20199;-91
2023/06/25 04:44:31;;;;;;;8.57;6.95;;;18.70;99.90;;;;;;5018689;28;20179;-92
2023/06/25 04:46:57;;;;;;;9.18;7.03;;;18.80;99.90;;;;;;5018616;28;20638;-91
2023/06/25 04:49:23;;;;;;;10.48;6.57;;;18.90;99.90;;;;;;5018473;28;20241;-92
2023/06/25 04:51:49;;;;;;;8.75;6.93;;;19.00;99.90;;;;;;5017431;28;20191;-92
2023/06/25 04:54:14;;;;;;;10.73;6.93;;;19.10;99.90;;;;;;5003290;28;20187;-92
2023/06/25 04:56:42;;;;;;;11.30;7.40;;;19.10;99.90;;;;;;5018024;28;20245;-92
2023/06/25 04:59:08;;;;;;;11.57;6.97;;;19.00;99.90;;;;;;5017415;28;20179;-92
2023/06/25 05:01:33;;;;;;;14.15;7.38;;;19.00;99.90;;;;;;5016553;28;20179;-91
2023/06/25 05:03:59;;;;;;;8.10;7.05;;;19.00;99.90;;;;;;5016610;28;20248;-92
2023/06/25 05:06:33;;;;;;;11.70;7.20;;;18.90;99.90;;;;;;5018170;28;20191;-92
2023/06/25 05:08:59;;;;;;;13.07;7.18;;;18.90;99.90;;;;;;5017187;28;20270;-94
2023/06/25 05:11:24;;;;;;;10.30;7.35;;;18.90;99.90;;;;;;5016556;28;20653;-92
2023/06/25 05:13:50;;;;;;;9.02;5.95;;;18.90;99.90;;;;;;5017104;28;20573;-94
2023/06/25 05:16:16;;;;;;;8.50;6.57;;;18.90;99.90;;;;;;5016827;28;20236;-92
2023/06/25 05:18:42;;;;;;;7.38;6.50;;;18.90;99.90;;;;;;5017217;28;20187;-92
2023/06/25 05:21:08;;;;;;;10.45;6.72;;;18.90;99.90;;;;;;5016592;28;20194;-92
2023/06/25 05:23:38;;;;;;;6.60;5.90;;;18.80;99.90;;;;;;5016668;28;20265;-91
2023/06/25 05:26:05;;;;;;;8.73;6.00;;;18.90;99.90;;;;;;5016159;28;20209;-93
2023/06/25 05:28:31;;;;;;;10.65;6.32;;;18.90;99.90;;;;;;5013883;28;20179;-92
2023/06/25 05:30:56;;;;;;;6.55;5.85;;;18.90;99.90;;;;;;5017509;28;20222;-92
2023/06/25 05:33:22;;;;;;;7.07;5.95;;;18.90;99.90;;;;;;5016787;28;20179;-92
2023/06/25 05:35:48;;;;;;;8.60;6.30;;;19.00;99.90;;;;;;5016367;28;20282;-92
2023/06/25 05:38:21;;;;;;;6.28;5.32;;;19.00;99.90;;;;;;5016761;28;20267;-92
2023/06/25 05:40:46;;;;;;;6.30;5.70;;;19.00;99.90;;;;;;5015420;28;20214;-92
2023/06/25 05:43:12;;;;;;;9.50;6.25;;;19.10;99.90;;;;;;5015488;28;20187;-92
2023/06/25 05:45:38;;;;;;;6.85;5.53;;;19.10;99.90;;;;;;5016404;28;20284;-92
2023/06/25 05:48:12;;;;;;;6.65;5.65;;;19.20;99.90;;;;;;5016704;28;20262;-93
2023/06/25 05:50:37;;;;;;;8.27;6.45;;;19.20;99.90;;;;;;5016553;28;20199;-93
2023/06/25 05:53:04;;;;;;;6.68;5.85;;;19.30;99.90;;;;;;5015743;28;20288;-91
2023/06/25 05:55:30;;;;;;;9.75;6.45;;;19.30;99.90;;;;;;5016145;28;20199;-91
2023/06/25 05:57:55;;;;;;;7.95;6.55;;;19.30;99.90;;;;;;5016606;28;20628;-92
2023/06/25 06:00:23;;;;;;;8.15;5.95;;;19.30;99.90;;;;;;5016421;28;20182;-92
2023/06/25 06:02:48;;;;;;;9.27;6.10;;;19.40;99.90;;;;;;5015992;28;20678;-91
2023/06/25 06:05:14;;;;;;;10.48;6.45;;;19.40;99.90;;;;;;5016160;28;20696;-92
2023/06/25 06:07:46;;;;;;;9.02;5.78;;;19.50;99.90;;;;;;5016250;28;20198;-92
2023/06/25 06:10:15;;;;;;;6.70;5.97;;;19.60;99.90;;;;;;5016138;28;20658;-93
2023/06/25 06:12:40;;;;;;;9.90;6.18;;;19.60;99.90;;;;;;5010290;28;20274;-93
2023/06/25 06:15:07;;;;;;;9.10;5.63;;;19.70;99.90;;;;;;4996442;28;20270;-92
2023/06/25 06:17:32;;;;;;;7.10;5.65;;;19.80;99.90;;;;;;4998389;28;20180;-93
2023/06/25 06:19:58;;;;;;;6.18;5.53;;;19.90;99.90;;;;;;5014112;28;20248;-92
2023/06/25 06:22:24;;;;;;;7.07;5.88;;;19.90;99.90;;;;;;5015259;28;20191;-92
2023/06/25 06:24:49;;;;;;;7.75;5.65;;;20.00;99.90;;;;;;5015614;28;20194;-92
2023/06/25 06:27:17;;;;;;;8.00;5.97;;;20.10;99.90;;;;;;5016725;28;20186;-94
2023/06/25 06:29:43;;;;;;;7.38;5.35;;;20.10;99.90;;;;;;5015419;28;20657;-92
2023/06/25 06:32:09;;;;;;;8.30;6.35;;;20.20;99.90;;;;;;5016021;28;20190;-93
2023/06/25 06:34:35;;;;;;;5.97;5.10;;;20.20;99.90;;;;;;5015410;28;20196;-92
2023/06/25 06:37:03;;;;;;;6.28;5.50;;;20.20;99.90;;;;;;5015156;28;20183;-93
2023/06/25 06:39:29;;;;;;;7.60;5.60;;;20.20;99.90;;;;;;5015710;28;20625;-93
2023/06/25 06:41:54;;;;;;;6.13;5.53;;;20.20;99.90;;;;;;5015261;28;20183;-92
2023/06/25 06:44:20;;;;;;;9.63;6.05;;;20.20;99.90;;;;;;5016542;28;20638;-90
2023/06/25 06:46:47;;;;;;;6.05;4.78;;;20.20;99.90;;;;;;5008701;28;20192;-92
2023/06/25 06:49:13;;;;;;;9.20;5.55;;;20.30;99.90;;;;;;5014007;28;20179;-92
2023/06/25 06:51:40;;;;;;;7.35;5.07;;;20.20;99.90;;;;;;5016216;28;20191;-91
2023/06/25 06:54:06;;;;;;;7.38;5.32;;;20.30;99.90;;;;;;5014409;28;20622;-92
2023/06/25 06:56:33;;;;;;;8.95;5.82;;;20.50;99.90;;;;;;5008040;28;20651;-92
2023/06/25 06:58:58;;;;;;;9.82;5.82;;;20.50;99.90;;;;;;5013615;28;20194;-91
2023/06/25 07:01:26;;;;;;;9.90;5.75;;;20.60;99.90;;;;;;5014387;28;20187;-92
2023/06/25 07:03:56;;;;;;;12.07;7.13;;;20.70;99.90;;;;;;5010054;28;20243;-90
2023/06/25 07:06:22;;;;;;;11.90;7.07;;;21.00;99.90;;;;;;5008011;28;20183;-91
2023/06/25 07:08:48;;;;;;;12.52;8.20;;;21.20;99.90;;;;;;5014578;28;20194;-88
2023/06/25 07:11:16;;;;;;;15.38;8.20;;;21.40;99.90;;;;;;5008597;28;20214;-91
2023/06/25 07:13:43;;;;;;;12.73;8.50;;;21.70;99.90;;;;;;5015575;28;20226;-91
2023/06/25 07:16:09;;;;;;;14.20;8.20;;;21.90;99.90;;;;;;5014471;28;20190;-91
2023/06/25 07:18:35;;;;;;;12.70;7.93;;;22.10;99.90;;;;;;5014459;28;20209;-90
2023/06/25 07:21:01;;;;;;;15.38;7.90;;;22.30;99.90;;;;;;5007787;28;20183;-90
2023/06/25 07:23:27;;;;;;;15.18;8.15;;;22.40;99.90;;;;;;5014565;28;20183;-89
2023/06/25 07:25:52;;;;;;;13.23;8.45;;;22.60;99.90;;;;;;5014032;28;20179;-91
2023/06/25 07:28:19;;;;;;;12.68;8.05;;;22.80;99.90;;;;;;5013926;28;20195;-91
2023/06/25 07:30:45;;;;;;;13.45;7.38;;;23.00;99.90;;;;;;5011318;28;21499;-91
2023/06/25 07:33:11;;;;;;;11.85;7.72;;;23.10;99.90;;;;;;5012280;28;20198;-91
2023/06/25 07:35:37;;;;;;;19.33;7.82;;;23.30;99.90;;;;;;5001794;28;20190;-90
2023/06/25 07:38:06;;;;;;;15.93;7.95;;;23.30;99.90;;;;;;5014479;28;20179;-92
2023/06/25 07:40:32;;;;;;;12.43;7.18;;;23.40;99.90;;;;;;5013947;28;20197;-91
2023/06/25 07:42:57;;;;;;;10.00;6.47;;;23.60;99.90;;;;;;5014155;28;20210;-90
2023/06/25 07:45:23;;;;;;;9.57;5.65;;;23.80;99.90;;;;;;5015291;28;20270;-93
2023/06/25 07:47:49;;;;;;;8.77;6.00;;;23.90;99.90;;;;;;5002604;28;20186;-91
2023/06/25 07:50:14;;;;;;;6.00;4.93;;;23.90;99.90;;;;;;4994359;28;20207;-91
2023/06/25 07:52:40;;;;;;;7.40;5.55;;;24.00;99.90;;;;;;5011202;28;20187;-90
2023/06/25 07:55:06;;;;;;;8.30;5.43;;;24.10;99.90;;;;;;5013628;28;20203;-89
2023/06/25 07:57:32;;;;;;;7.82;5.35;;;24.20;99.90;;;;;;5013560;28;20503;-92
2023/06/25 07:59:58;;;;;;;6.63;4.88;;;24.30;99.90;;;;;;5014121;28;20172;-90
2023/06/25 08:02:24;;;;;;;8.98;5.00;;;24.40;99.90;;;;;;5014693;28;20183;-90
2023/06/25 08:04:50;;;;;;;6.50;4.50;;;24.40;99.90;;;;;;5012713;28;20252;-90
2023/06/25 08:07:15;;;;;;;5.88;4.70;;;24.60;99.90;;;;;;5014188;28;20186;-91
2023/06/25 08:09:43;;;;;;;6.93;4.40;;;24.70;99.90;;;;;;5014990;28;20289;-88
2023/06/25 08:12:09;;;;;;;8.43;4.65;;;24.80;99.90;;;;;;5013428;28;20182;-91
2023/06/25 08:14:35;;;;;;;8.13;4.53;;;24.80;99.90;;;;;;5014120;28;20527;-92
2023/06/25 08:17:01;;;;;;;7.65;4.28;;;24.80;99.90;;;;;;4998996;28;20995;-93
2023/06/25 08:19:27;;;;;;;6.20;4.60;;;24.80;99.90;;;;;;5013745;28;20256;-96
2023/06/25 08:21:53;;;;;;;5.70;4.32;;;24.90;99.90;;;;;;5010576;28;20187;-94
2023/06/25 08:24:18;;;;;;;7.45;5.15;;;25.10;99.90;;;;;;5014169;28;20255;-91
2023/06/25 08:26:44;;;;;;;6.45;4.80;;;25.10;99.90;;;;;;5013924;28;20183;-95
2023/06/25 08:29:12;;;;;;;7.13;4.55;;;25.20;99.90;;;;;;5013604;28;20194;-93
2023/06/25 08:31:38;;;;;;;6.72;4.65;;;25.20;99.90;;;;;;5013301;28;20194;-93
2023/06/25 08:34:03;;;;;;;5.10;4.30;;;25.30;99.90;;;;;;5013033;28;20187;-96
2023/06/25 08:36:29;;;;;;;7.50;4.43;;;25.30;99.90;;;;;;5013099;28;20187;-95
2023/06/25 08:38:56;;;;;;;8.32;5.15;;;25.30;99.90;;;;;;5013524;28;20662;-92
2023/06/25 08:41:22;;;;;;;9.23;4.85;;;25.40;99.90;;;;;;5014810;28;20172;-93
2023/06/25 08:43:51;;;;;;;9.80;5.43;;;25.50;99.90;;;;;;5013749;28;20183;-93
2023/06/25 08:46:17;;;;;;;6.40;4.47;;;25.60;99.90;;;;;;5015795;28;20182;-92
2023/06/25 08:48:53;;;;;;;6.95;4.30;;;25.70;99.90;;;;;;5014633;28;20183;-92
2023/06/25 08:51:22;;;;;;;5.03;4.13;;;25.80;99.90;;;;;;5015814;28;20653;-93
2023/06/25 08:53:48;;;;;;;5.50;4.40;;;25.80;99.60;;;;;;5015026;28;20271;-94
2023/06/25 08:56:17;;;;;;;7.05;4.28;;;25.80;99.70;;;;;;5001794;28;20266;-93
2023/06/25 08:58:44;;;;;;;4.55;4.15;;;26.00;99.90;;;;;;4995629;28;20206;-95
2023/06/25 09:01:14;;;;;;;8.82;4.85;;;26.00;99.90;;;;;;5005275;28;20183;-94
2023/06/25 09:03:44;;;;;;;7.53;4.28;;;26.00;99.90;;;;;;5013468;28;20229;-94
2023/06/25 09:06:14;;;;;;;5.97;3.85;;;26.10;99.90;;;;;;5010182;28;20188;-93
2023/06/25 09:08:49;;;;;;;7.75;4.20;;;26.20;98.90;;;;;;5012238;28;20237;-92
2023/06/25 09:11:14;;;;;;;6.70;4.32;;;26.30;99.90;;;;;;5013836;28;20214;-94
2023/06/25 09:13:40;;;;;;;7.80;4.00;;;26.50;99.90;;;;;;5013970;28;20178;-91
2023/06/25 09:16:10;;;;;;;4.90;3.80;;;26.30;98.00;;;;;;5014694;28;20230;-92
2023/06/25 09:18:37;;;;;;;9.40;4.35;;;26.30;99.60;;;;;;5017307;28;20214;-94
2023/06/25 09:21:05;;;;;;;8.13;4.53;;;26.30;98.40;;;;;;5016754;28;20179;-95
2023/06/25 09:23:31;;;;;;;5.75;4.43;;;26.40;96.70;;;;;;5007369;28;20184;-95
2023/06/25 09:25:57;;;;;;;8.35;4.53;;;26.50;97.20;;;;;;5007545;28;20697;-93
2023/06/25 09:28:31;;;;;;;10.52;4.45;;;26.50;97.40;;;;;;5016683;28;20194;-93
2023/06/25 09:30:57;;;;;;;8.52;5.03;;;26.50;98.70;;;;;;5016844;28;20661;-92
2023/06/25 09:33:31;;;;;;;13.00;5.30;;;26.60;99.50;;;;;;5017923;28;20213;-94
2023/06/25 09:36:03;;;;;;;9.73;5.38;;;26.80;99.50;;;;;;5017352;28;20585;-95
2023/06/25 09:38:31;;;;;;;8.60;5.60;;;26.80;98.50;;;;;;5016695;28;20183;-95
2023/06/25 09:41:01;;;;;;;9.52;5.38;;;26.80;97.20;;;;;;5018499;28;20187;-94
2023/06/25 09:43:27;;;;;;;9.05;5.47;;;26.80;97.20;;;;;;5017207;28;20193;-92
2023/06/25 09:45:54;;;;;;;9.35;5.38;;;26.80;96.50;;;;;;5017065;28;20175;-93
2023/06/25 09:48:24;;;;;;;11.25;5.80;;;26.90;97.00;;;;;;5016526;28;20241;-89
2023/06/25 09:50:51;;;;;;;11.90;5.93;;;26.90;98.10;;;;;;5016915;28;20646;-94
2023/06/25 09:53:21;;;;;;;10.98;5.93;;;26.90;98.10;;;;;;5013704;28;20200;-93
2023/06/25 09:55:49;;;;;;;9.10;5.03;;;26.90;99.10;;;;;;4998109;28;20160;-93
2023/06/25 09:58:15;;;;;;;8.43;5.18;;;26.90;96.00;;;;;;5001959;28;20179;-95
2023/06/25 10:00:43;;;;;;;6.38;3.85;;;26.90;97.90;;;;;;5001999;28;20244;-95
2023/06/25 10:03:11;;;;;;;4.40;3.58;;;27.10;95.00;;;;;;5017274;28;20266;-95
2023/06/25 10:05:37;;;;;;;3.85;3.00;;;27.20;96.90;;;;;;5017317;28;20281;-96
2023/06/25 10:08:04;;;;;;;4.97;3.50;;;27.20;95.70;;;;;;5016315;28;20629;-94
2023/06/25 10:10:31;;;;;;;4.88;3.42;;;27.30;97.50;;;;;;5016191;28;20217;-96
2023/06/25 10:12:57;;;;;;;5.40;3.75;;;27.40;96.10;;;;;;5012637;28;20175;-94
2023/06/25 10:15:32;;;;;;;4.78;3.72;;;27.40;96.10;;;;;;4996688;28;20183;-94
2023/06/25 10:18:05;;;;;;;4.90;3.40;;;27.40;95.40;;;;;;4997866;28;20270;-96
2023/06/25 10:20:37;;;;;;;4.25;3.53;;;27.40;95.00;;;;;;5012829;28;20253;-95
2023/06/25 10:23:13;;;;;;;5.13;3.60;;;27.50;95.40;;;;;;5016648;28;20179;-95
2023/06/25 10:25:50;;;;;;;5.95;3.88;;;27.50;95.30;;;;;;5016269;28;20644;-93
2023/06/25 10:28:16;;;;;;;4.72;3.67;;;27.60;95.80;;;;;;5016037;28;20548;-96
2023/06/25 10:30:49;;;;;;;5.53;3.47;;;27.60;95.20;;;;;;5018580;28;20223;-96
2023/06/25 10:33:20;;;;;;;4.70;3.55;;;27.70;95.00;;;;;;5023470;28;20201;-96
2023/06/25 10:35:55;;;;;;;4.30;3.72;;;27.80;94.10;;;;;;5025910;28;20187;-94
2023/06/25 10:38:22;;;;;;;3.97;3.33;;;27.80;94.20;;;;;;5025608;28;20182;-96
2023/06/25 10:40:55;;;;;;;4.03;3.28;;;27.90;94.80;;;;;;5017647;28;20183;-95
2023/06/25 10:43:21;;;;;;;3.75;3.38;;;28.00;94.00;;;;;;5014044;28;20180;-94
2023/06/25 10:45:50;;;;;;;3.38;3.08;;;28.00;94.50;;;;;;4997250;28;20646;-92
2023/06/25 10:48:16;;;;;;;3.45;3.00;;;27.80;94.30;;;;;;4997775;28;20191;-92
2023/06/25 10:50:53;;;;;;;3.20;2.90;;;27.90;95.70;;;;;;5005266;28;20221;-94
2023/06/25 10:53:23;;;;;;;3.38;3.08;;;27.90;95.10;;;;;;5018077;28;20511;-94
2023/06/25 10:55:51;;;;;;;3.17;2.72;;;28.00;95.50;;;;;;5006756;28;20179;-96
2023/06/25 10:58:22;;;;;;;4.38;2.60;;;28.00;94.40;;;;;;5001102;28;20180;-96
2023/06/25 11:01:02;;;;;;;5.22;2.78;;;28.10;93.30;;;;;;5007961;28;20245;-95
2023/06/25 11:03:35;;;;;;;9.10;2.72;;;28.00;96.40;;;;;;5000967;28;20234;-94
2023/06/25 11:06:01;;;;;;;2.90;2.70;;;28.00;94.80;;;;;;5020040;28;20559;-93
2023/06/25 11:08:27;;;;;;;2.70;2.50;;;28.00;94.30;;;;;;5023131;28;20179;-96
2023/06/25 11:10:54;;;;;;;3.33;2.70;;;28.10;94.80;;;;;;5017906;28;20218;-95
2023/06/25 11:13:20;;;;;;;2.92;2.70;;;28.20;92.60;;;;;;5015292;28;20175;-92
2023/06/25 11:15:45;;;;;;;2.95;2.30;;;28.20;91.70;;;;;;5017080;28;20214;-96
2023/06/25 11:18:11;;;;;;;3.53;3.00;;;28.20;91.60;;;;;;5018868;28;20171;-94
2023/06/25 11:20:42;;;;;;;5.25;2.72;;;28.20;91.40;;;;;;5019379;28;20214;-94
2023/06/25 11:23:11;;;;;;;3.83;2.95;;;28.20;94.00;;;;;;5019934;28;20204;-96
2023/06/25 11:25:36;;;;;;;3.90;2.58;;;28.30;96.10;;;;;;5020757;28;20190;-95
2023/06/25 11:28:13;;;;;;;3.90;2.78;;;28.40;93.40;;;;;;5020778;28;20194;-96
2023/06/25 11:30:42;;;;;;;2.80;2.55;;;28.40;93.70;;;;;;5019749;28;20221;-95
2023/06/25 11:33:18;;;;;;;3.25;2.60;;;28.50;92.80;;;;;;5010175;28;20242;-96
2023/06/25 11:35:49;;;;;;;2.55;2.35;;;28.60;92.40;;;;;;5013725;28;20182;-95
2023/06/25 11:38:26;;;;;;;3.05;2.75;;;28.60;91.80;;;;;;5013930;28;20186;-95
2023/06/25 11:40:55;;;;;;;2.60;2.40;;;28.60;92.20;;;;;;5024231;28;20178;-96
2023/06/25 11:43:22;;;;;;;3.38;2.30;;;28.70;91.80;;;;;;5020125;28;20174;-95
2023/06/25 11:45:48;;;;;;;3.53;2.70;;;28.80;94.70;;;;;;5022231;28;20197;-96
2023/06/25 11:48:16;;;;;;;4.18;2.40;;;28.80;91.90;;;;;;5024949;28;20528;-96
2023/06/25 11:50:47;;;;;;;3.42;2.63;;;28.80;90.90;;;;;;5022371;28;20289;-95
2023/06/25 11:53:14;;;;;;;5.95;2.50;;;28.80;92.40;;;;;;5023351;28;20234;-96
2023/06/25 11:55:41;;;;;;;3.63;2.70;;;28.90;90.40;;;;;;4997389;28;20257;-96
2023/06/25 11:58:14;;;;;;;3.63;2.60;;;29.00;91.90;;;;;;5033872;23;20242;-93
2023/06/25 12:00:46;;;;;;;2.60;2.40;;;29.00;92.80;;;;;;5013776;28;20171;-93
2023/06/25 12:03:20;;;;;;;2.55;2.33;;;29.10;93.60;;;;;;5013932;28;20697;-93
2023/06/25 12:06:01;;;;;;;3.97;2.50;;;29.20;93.40;;;;;;4995322;28;20171;-95
2023/06/25 12:08:42;;;;;;;3.38;2.30;;;29.30;92.80;;;;;;4993863;28;20194;-93
2023/06/25 12:11:08;;;;;;;3.75;2.83;;;29.30;91.00;;;;;;5011050;28;20261;-93
2023/06/25 12:13:34;;;;;;;2.92;2.63;;;29.30;91.20;;;;;;5009814;28;20175;-93
2023/06/25 12:16:00;;;;;;;3.15;2.70;;;29.40;92.50;;;;;;4993313;28;20182;-94
2023/06/25 12:18:26;;;;;;;2.53;2.20;;;29.50;92.50;;;;;;4993479;28;20172;-95
2023/06/25 12:20:52;;;;;;;2.67;2.22;;;29.50;90.80;;;;;;4995623;28;20177;-95
2023/06/25 12:23:18;;;;;;;3.03;2.40;;;29.50;92.50;;;;;;4993435;28;20646;-96
2023/06/25 12:25:50;;;;;;;3.50;2.55;;;29.50;89.30;;;;;;4993763;28;20261;-95
2023/06/25 12:28:15;;;;;;;2.60;2.40;;;29.60;91.50;;;;;;4994117;28;20174;-94
2023/06/25 12:30:41;;;;;;;2.63;2.42;;;29.70;92.60;;;;;;4992793;28;20274;-94
2023/06/25 12:33:07;;;;;;;4.35;2.60;;;29.70;92.30;;;;;;4993100;28;20540;-95
2023/06/25 12:35:33;;;;;;;2.72;2.45;;;29.60;91.40;;;;;;4992969;28;20722;-92
2023/06/25 12:37:58;;;;;;;3.70;2.90;;;29.60;91.70;;;;;;4992706;28;20238;-93
2023/06/25 12:40:24;;;;;;;2.53;2.33;;;29.70;90.50;;;;;;4992533;28;20187;-92
2023/06/25 12:42:56;;;;;;;2.60;2.40;;;29.70;92.00;;;;;;4989416;28;20194;-93
2023/06/25 12:45:26;;;;;;;2.75;2.45;;;29.70;90.80;;;;;;4991008;28;20215;-93